Mars — XPC8385 — position and weather

sailwx.info

Track history (hours):
 
Tides and Currents Weather Stations Pressure Air Temp Water Temp Dewpoint Dewpoint Depression Visibility Wind Speed Wind Dir Waves Ship Positions

Mars

Last reported at 2017-Feb-20 05:13 UTC. Time now 2017-Feb-20 11:11 UTC.
Position N 55°17' E 014°48'.

Length 14 m; draft 1.7 m.

Type: Pilot. MMSI: 219001058.

Date/timePositionNaut miles runAvg speedWind from/ knotsBaromVisibWave heightAir tempDewpointWater temp
2017-Feb-20 05:13N 55°17' E 014°48'0 0.0
2017-Feb-20 02:22N 55°17' E 014°48'0 0.0
2017-Feb-19 22:31N 55°17' E 014°48'0 0.0
2017-Feb-19 19:13N 55°17' E 014°48'3 0.4
2017-Feb-19 10:33N 55°19' E 014°52'3 0.3
2017-Feb-18 23:33N 55°18' E 014°47'2 0.2
2017-Feb-18 14:32N 55°17' E 014°48'0 0.0
2017-Feb-18 11:18N 55°17' E 014°48'4 0.5
2017-Feb-18 02:33N 55°21' E 014°47'2 0.6
2017-Feb-17 23:33N 55°19' E 014°46'3 0.6
2017-Feb-17 19:30N 55°17' E 014°48'0 0.0
2017-Feb-17 17:26N 55°17' E 014°48'2 0.5
2017-Feb-17 12:32N 55°19' E 014°48'2 0.1
2017-Feb-16 20:21N 55°17' E 014°48'2 2.7
2017-Feb-16 19:33N 55°18' E 014°52'2 0.1
2017-Feb-15 17:20N 55°17' E 014°48'0 0.0
2017-Feb-15 15:13N 55°17' E 014°48'2 2.9
2017-Feb-15 14:33N 55°18' E 014°47'4 0.6
2017-Feb-15 07:33N 55°18' E 014°54'3 0.4
2017-Feb-14 22:05N 55°17' E 014°48'0 0.0
2017-Feb-14 21:23N 55°17' E 014°48'0 0.0
2017-Feb-14 20:17N 55°17' E 014°48'0 0.0
2017-Feb-14 18:05N 55°17' E 014°48'0 0.3
2017-Feb-14 17:28N 55°17' E 014°48'0 0.1
2017-Feb-14 15:30N 55°17' E 014°48'0 0.0
2017-Feb-14 14:30N 55°17' E 014°48'1 0.5
2017-Feb-14 13:09N 55°17' E 014°49'1 0.9
2017-Feb-14 12:24N 55°17' E 014°48'2 0.1
2017-Feb-13 04:14N 55°15' E 014°50'3 4.8
2017-Feb-13 03:33N 55°17' E 014°45'0 0.0
2017-Feb-13 01:06N 55°17' E 014°45'0 0.0
2017-Feb-13 00:24N 55°17' E 014°45'0 0.0
2017-Feb-12 23:18N 55°17' E 014°45'0 0.0
2017-Feb-12 22:30N 55°17' E 014°45'0 0.0
2017-Feb-12 21:30N 55°17' E 014°45'0 0.0
2017-Feb-12 20:30N 55°17' E 014°45'0 0.0
2017-Feb-12 19:30N 55°17' E 014°45'0 0.0
2017-Feb-12 18:30N 55°17' E 014°45'0 0.0
2017-Feb-12 17:30N 55°17' E 014°45'0 0.0
2017-Feb-12 16:24N 55°17' E 014°45'0 0.0
2017-Feb-12 15:33N 55°17' E 014°45'0 0.0
2017-Feb-12 14:32N 55°17' E 014°45'0 0.0
2017-Feb-12 13:32N 55°17' E 014°45'0 0.0
2017-Feb-12 12:32N 55°17' E 014°45'0 0.0
2017-Feb-12 11:32N 55°17' E 014°45'0 0.0
2017-Feb-12 10:26N 55°17' E 014°45'0 0.0
2017-Feb-12 09:32N 55°17' E 014°45'0 0.0
2017-Feb-12 08:29N 55°17' E 014°45'0 0.0
2017-Feb-12 07:17N 55°17' E 014°45'0 0.0
2017-Feb-12 06:27N 55°17' E 014°45'0 0.0
2017-Feb-12 05:33N 55°17' E 014°45'0 0.0
2017-Feb-12 04:33N 55°17' E 014°45'0 0.0
2017-Feb-12 03:33N 55°17' E 014°45'0 0.0
2017-Feb-12 02:33N 55°17' E 014°45'0 0.0
2017-Feb-12 01:33N 55°17' E 014°45'0 0.0
2017-Feb-12 00:33N 55°17' E 014°45'0 0.0
2017-Feb-11 23:15N 55°17' E 014°45'0 0.0
2017-Feb-11 22:33N 55°17' E 014°45'0 0.0
2017-Feb-11 21:33N 55°17' E 014°45'0 0.0
2017-Feb-11 19:33N 55°17' E 014°45'0 0.0
2017-Feb-11 18:25N 55°17' E 014°45'0 0.0
2017-Feb-11 17:26N 55°17' E 014°45'0 0.0
2017-Feb-11 16:32N 55°17' E 014°45'0 0.0
2017-Feb-11 15:26N 55°17' E 014°45'0 0.0
2017-Feb-11 14:32N 55°17' E 014°45'0 0.0
2017-Feb-11 13:32N 55°17' E 014°45'0 0.0
2017-Feb-11 12:32N 55°17' E 014°45'0 0.0
2017-Feb-11 11:32N 55°17' E 014°45'0 0.0
2017-Feb-11 10:32N 55°17' E 014°45'0 0.0
2017-Feb-11 09:32N 55°17' E 014°45'0 0.0
2017-Feb-11 08:32N 55°17' E 014°45'0 0.0
2017-Feb-11 07:32N 55°17' E 014°45'0 0.0
2017-Feb-11 06:26N 55°17' E 014°45'0 0.0
2017-Feb-11 05:32N 55°17' E 014°45'0 0.0
2017-Feb-11 04:32N 55°17' E 014°45'0 0.0
2017-Feb-11 03:32N 55°17' E 014°45'0 0.0
2017-Feb-11 01:14N 55°17' E 014°45'0 0.0
2017-Feb-11 00:26N 55°17' E 014°45'0 0.0
2017-Feb-10 23:32N 55°17' E 014°45'0 0.1
2017-Feb-10 22:33N 55°17' E 014°45'1 1.1
2017-Feb-10 21:33N 55°16' E 014°43'1 1.0
2017-Feb-10 20:17N 55°17' E 014°45'0 0.0
2017-Feb-10 19:29N 55°17' E 014°45'0 0.0
2017-Feb-10 18:17N 55°17' E 014°45'0 0.0
2017-Feb-10 17:23N 55°17' E 014°45'1 0.8
2017-Feb-10 16:33N 55°17' E 014°44'1 0.6
2017-Feb-10 15:27N 55°17' E 014°45'0 0.0
2017-Feb-10 14:33N 55°17' E 014°45'1 1.4
2017-Feb-10 13:33N 55°17' E 014°43'1 1.2
2017-Feb-10 12:29N 55°17' E 014°45'0 0.0
2017-Feb-10 11:29N 55°17' E 014°45'0 0.0
2017-Feb-10 10:29N 55°17' E 014°45'0 0.0
2017-Feb-10 09:29N 55°17' E 014°45'0 0.0
2017-Feb-10 08:29N 55°17' E 014°45'0 0.0
2017-Feb-10 07:29N 55°17' E 014°45'0 0.0
2017-Feb-10 06:23N 55°17' E 014°45'0 0.0
2017-Feb-10 05:29N 55°17' E 014°45'  
Track history (hours):
 
Tides and Currents Weather Stations Pressure Air Temp Water Temp Dewpoint Dewpoint Depression Visibility Wind Speed Wind Dir Waves Ship Positions

Mars

Last reported at 2017-Feb-20 05:13 UTC. Time now 2017-Feb-20 11:11 UTC.
Position N 55°17' E 014°48'.

Length 14 m; draft 1.7 m.

Type: Pilot. MMSI: 219001058.

Date/timePositionNaut miles runAvg speedWind from/ knotsBaromVisibWave heightAir tempDewpointWater temp
2017-Feb-20 05:13N 55°17' E 014°48'0 0.0
2017-Feb-20 02:22N 55°17' E 014°48'0 0.0
2017-Feb-19 22:31N 55°17' E 014°48'0 0.0
2017-Feb-19 19:13N 55°17' E 014°48'3 0.4
2017-Feb-19 10:33N 55°19' E 014°52'3 0.3
2017-Feb-18 23:33N 55°18' E 014°47'2 0.2
2017-Feb-18 14:32N 55°17' E 014°48'0 0.0
2017-Feb-18 11:18N 55°17' E 014°48'4 0.5
2017-Feb-18 02:33N 55°21' E 014°47'2 0.6
2017-Feb-17 23:33N 55°19' E 014°46'3 0.6
2017-Feb-17 19:30N 55°17' E 014°48'0 0.0
2017-Feb-17 17:26N 55°17' E 014°48'2 0.5
2017-Feb-17 12:32N 55°19' E 014°48'2 0.1
2017-Feb-16 20:21N 55°17' E 014°48'2 2.7
2017-Feb-16 19:33N 55°18' E 014°52'2 0.1
2017-Feb-15 17:20N 55°17' E 014°48'0 0.0
2017-Feb-15 15:13N 55°17' E 014°48'2 2.9
2017-Feb-15 14:33N 55°18' E 014°47'4 0.6
2017-Feb-15 07:33N 55°18' E 014°54'3 0.4
2017-Feb-14 22:05N 55°17' E 014°48'0 0.0
2017-Feb-14 21:23N 55°17' E 014°48'0 0.0
2017-Feb-14 20:17N 55°17' E 014°48'0 0.0
2017-Feb-14 18:05N 55°17' E 014°48'0 0.3
2017-Feb-14 17:28N 55°17' E 014°48'0 0.1
2017-Feb-14 15:30N 55°17' E 014°48'0 0.0
2017-Feb-14 14:30N 55°17' E 014°48'1 0.5
2017-Feb-14 13:09N 55°17' E 014°49'1 0.9
2017-Feb-14 12:24N 55°17' E 014°48'2 0.1
2017-Feb-13 04:14N 55°15' E 014°50'3 4.8
2017-Feb-13 03:33N 55°17' E 014°45'0 0.0
2017-Feb-13 01:06N 55°17' E 014°45'0 0.0
2017-Feb-13 00:24N 55°17' E 014°45'0 0.0
2017-Feb-12 23:18N 55°17' E 014°45'0 0.0
2017-Feb-12 22:30N 55°17' E 014°45'0 0.0
2017-Feb-12 21:30N 55°17' E 014°45'0 0.0
2017-Feb-12 20:30N 55°17' E 014°45'0 0.0
2017-Feb-12 19:30N 55°17' E 014°45'0 0.0
2017-Feb-12 18:30N 55°17' E 014°45'0 0.0
2017-Feb-12 17:30N 55°17' E 014°45'0 0.0
2017-Feb-12 16:24N 55°17' E 014°45'0 0.0
2017-Feb-12 15:33N 55°17' E 014°45'0 0.0
2017-Feb-12 14:32N 55°17' E 014°45'0 0.0
2017-Feb-12 13:32N 55°17' E 014°45'0 0.0
2017-Feb-12 12:32N 55°17' E 014°45'0 0.0
2017-Feb-12 11:32N 55°17' E 014°45'0 0.0
2017-Feb-12 10:26N 55°17' E 014°45'0 0.0
2017-Feb-12 09:32N 55°17' E 014°45'0 0.0
2017-Feb-12 08:29N 55°17' E 014°45'0 0.0
2017-Feb-12 07:17N 55°17' E 014°45'0 0.0
2017-Feb-12 06:27N 55°17' E 014°45'0 0.0
2017-Feb-12 05:33N 55°17' E 014°45'0 0.0
2017-Feb-12 04:33N 55°17' E 014°45'0 0.0
2017-Feb-12 03:33N 55°17' E 014°45'0 0.0
2017-Feb-12 02:33N 55°17' E 014°45'0 0.0
2017-Feb-12 01:33N 55°17' E 014°45'0 0.0
2017-Feb-12 00:33N 55°17' E 014°45'0 0.0
2017-Feb-11 23:15N 55°17' E 014°45'0 0.0
2017-Feb-11 22:33N 55°17' E 014°45'0 0.0
2017-Feb-11 21:33N 55°17' E 014°45'0 0.0
2017-Feb-11 19:33N 55°17' E 014°45'0 0.0
2017-Feb-11 18:25N 55°17' E 014°45'0 0.0
2017-Feb-11 17:26N 55°17' E 014°45'0 0.0
2017-Feb-11 16:32N 55°17' E 014°45'0 0.0
2017-Feb-11 15:26N 55°17' E 014°45'0 0.0
2017-Feb-11 14:32N 55°17' E 014°45'0 0.0
2017-Feb-11 13:32N 55°17' E 014°45'0 0.0
2017-Feb-11 12:32N 55°17' E 014°45'0 0.0
2017-Feb-11 11:32N 55°17' E 014°45'0 0.0
2017-Feb-11 10:32N 55°17' E 014°45'0 0.0
2017-Feb-11 09:32N 55°17' E 014°45'0 0.0
2017-Feb-11 08:32N 55°17' E 014°45'0 0.0
2017-Feb-11 07:32N 55°17' E 014°45'0 0.0
2017-Feb-11 06:26N 55°17' E 014°45'0 0.0
2017-Feb-11 05:32N 55°17' E 014°45'0 0.0
2017-Feb-11 04:32N 55°17' E 014°45'0 0.0
2017-Feb-11 03:32N 55°17' E 014°45'0 0.0
2017-Feb-11 01:14N 55°17' E 014°45'0 0.0
2017-Feb-11 00:26N 55°17' E 014°45'0 0.0
2017-Feb-10 23:32N 55°17' E 014°45'0 0.1
2017-Feb-10 22:33N 55°17' E 014°45'1 1.1
2017-Feb-10 21:33N 55°16' E 014°43'1 1.0
2017-Feb-10 20:17N 55°17' E 014°45'0 0.0
2017-Feb-10 19:29N 55°17' E 014°45'0 0.0
2017-Feb-10 18:17N 55°17' E 014°45'0 0.0
2017-Feb-10 17:23N 55°17' E 014°45'1 0.8
2017-Feb-10 16:33N 55°17' E 014°44'1 0.6
2017-Feb-10 15:27N 55°17' E 014°45'0 0.0
2017-Feb-10 14:33N 55°17' E 014°45'1 1.4
2017-Feb-10 13:33N 55°17' E 014°43'1 1.2
2017-Feb-10 12:29N 55°17' E 014°45'0 0.0
2017-Feb-10 11:29N 55°17' E 014°45'0 0.0
2017-Feb-10 10:29N 55°17' E 014°45'0 0.0
2017-Feb-10 09:29N 55°17' E 014°45'0 0.0
2017-Feb-10 08:29N 55°17' E 014°45'0 0.0
2017-Feb-10 07:29N 55°17' E 014°45'0 0.0
2017-Feb-10 06:23N 55°17' E 014°45'0 0.0
2017-Feb-10 05:29N 55°17' E 014°45'  

Dump ship's entire track history